Time;durP1;ratioP1;P1;durP2;ratioP2;P2;SDS_P1;SDS_P2;PMS_P1;PMS_P2;Temp;Humidity;BMP_temperature;BMP_pressure;BME280_temperature;BME280_humidity;BME280_pressure;Samples;Min_cycle;Max_cycle;Signal;HPM_P1;HPM_P2
2022/07/08 00:00:06;;;;;;;9.30;2.50;;;15.20;99.90;;;;;;5025475;28;20218;-41
2022/07/08 00:02:38;;;;;;;10.50;2.30;;;15.20;99.90;;;;;;5040219;28;20257;-41
2022/07/08 00:05:06;;;;;;;16.63;2.57;;;15.10;99.90;;;;;;5043812;28;20259;-43
2022/07/08 00:07:32;;;;;;;11.87;2.37;;;15.10;99.90;;;;;;5043356;28;20211;-41
2022/07/08 00:09:59;;;;;;;7.73;1.97;;;15.10;99.90;;;;;;5043119;28;20217;-44
2022/07/08 00:12:28;;;;;;;9.50;2.07;;;15.10;99.90;;;;;;5044711;28;20234;-45
2022/07/08 00:14:55;;;;;;;10.60;2.30;;;15.10;99.90;;;;;;5028273;28;20226;-44
2022/07/08 00:17:22;;;;;;;11.73;2.37;;;15.10;99.90;;;;;;5044556;28;20210;-43
2022/07/08 00:19:48;;;;;;;13.50;1.93;;;15.00;99.90;;;;;;5040995;28;20789;-41
2022/07/08 00:22:15;;;;;;;9.83;1.80;;;15.00;99.90;;;;;;5044692;28;20203;-43
2022/07/08 00:24:42;;;;;;;10.20;2.10;;;15.00;99.90;;;;;;5040775;28;20223;-42
2022/07/08 00:27:09;;;;;;;9.93;2.20;;;14.90;99.90;;;;;;5044706;28;20207;-45
2022/07/08 00:29:37;;;;;;;8.57;2.20;;;14.90;99.90;;;;;;5041189;28;20199;-42
2022/07/08 00:32:05;;;;;;;14.13;2.73;;;14.90;99.90;;;;;;5029982;28;20250;-41
2022/07/08 00:34:32;;;;;;;13.73;2.57;;;14.90;99.90;;;;;;5042671;28;20238;-41
2022/07/08 00:36:59;;;;;;;12.57;2.43;;;14.90;99.90;;;;;;5042418;28;20187;-41
2022/07/08 00:39:26;;;;;;;12.53;2.50;;;14.90;99.90;;;;;;5044305;28;20609;-41
2022/07/08 00:41:53;;;;;;;14.20;2.93;;;14.80;99.90;;;;;;5041062;28;20261;-43
2022/07/08 00:44:20;;;;;;;14.07;2.00;;;14.80;99.90;;;;;;5044030;28;20700;-41
2022/07/08 00:46:48;;;;;;;14.20;2.70;;;14.80;99.90;;;;;;5027005;28;20320;-43
2022/07/08 00:49:15;;;;;;;7.97;2.17;;;14.70;99.90;;;;;;5043892;28;20203;-41
2022/07/08 00:51:43;;;;;;;13.17;2.97;;;14.70;99.90;;;;;;5041006;28;20660;-42
2022/07/08 00:54:13;;;;;;;5.13;2.03;;;14.70;99.90;;;;;;5043743;28;20239;-41
2022/07/08 00:56:40;;;;;;;11.33;1.93;;;14.70;99.90;;;;;;5041254;28;20199;-41
2022/07/08 00:59:09;;;;;;;11.10;2.13;;;14.70;99.90;;;;;;5040623;28;20206;-41
2022/07/08 01:01:36;;;;;;;10.17;2.37;;;14.70;99.90;;;;;;5033756;28;20192;-42
2022/07/08 01:04:05;;;;;;;7.53;2.20;;;14.70;99.90;;;;;;5037578;28;20215;-41
2022/07/08 01:06:33;;;;;;;12.70;2.43;;;14.70;99.90;;;;;;5042380;28;20273;-43
2022/07/08 01:09:01;;;;;;;8.00;2.03;;;14.70;99.90;;;;;;5041738;28;20197;-42
2022/07/08 01:11:28;;;;;;;11.33;2.10;;;14.70;99.90;;;;;;5043369;28;20211;-41
2022/07/08 01:13:56;;;;;;;12.20;1.97;;;14.70;99.90;;;;;;5040419;28;20219;-42
2022/07/08 01:16:23;;;;;;;8.50;1.97;;;14.70;99.90;;;;;;5044028;28;20279;-41
2022/07/08 01:18:50;;;;;;;7.53;2.63;;;14.70;99.90;;;;;;5026444;28;20202;-42
2022/07/08 01:21:18;;;;;;;5.43;2.20;;;14.70;99.90;;;;;;5043455;28;20199;-41
2022/07/08 01:23:44;;;;;;;8.90;2.00;;;14.70;99.90;;;;;;5039176;28;20215;-42
2022/07/08 01:26:13;;;;;;;6.53;1.80;;;14.70;99.90;;;;;;5043750;28;20215;-44
2022/07/08 01:28:43;;;;;;;5.17;1.57;;;14.70;99.90;;;;;;5040059;28;20199;-43
2022/07/08 01:31:10;;;;;;;7.40;2.27;;;14.70;99.90;;;;;;5043011;28;20575;-41
2022/07/08 01:33:38;;;;;;;7.13;1.80;;;14.70;99.90;;;;;;5031876;28;20231;-41
2022/07/08 01:36:06;;;;;;;9.90;2.67;;;14.70;99.90;;;;;;5039163;28;20266;-42
2022/07/08 01:38:34;;;;;;;10.17;1.97;;;14.70;99.90;;;;;;5041550;28;20199;-42
2022/07/08 01:41:01;;;;;;;12.07;2.57;;;14.70;99.90;;;;;;5041908;28;20274;-42
2022/07/08 01:43:28;;;;;;;7.53;2.17;;;14.70;99.90;;;;;;5042454;28;20641;-41
2022/07/08 01:45:55;;;;;;;7.37;1.97;;;14.70;99.90;;;;;;5040329;28;20227;-43
2022/07/08 01:48:22;;;;;;;9.83;2.70;;;14.70;99.90;;;;;;5043100;28;20257;-45
2022/07/08 01:50:49;;;;;;;7.23;2.10;;;14.70;99.90;;;;;;5026361;28;20368;-41
2022/07/08 01:53:15;;;;;;;9.57;1.80;;;14.70;99.90;;;;;;5042274;28;20272;-42
2022/07/08 01:55:45;;;;;;;8.30;1.73;;;14.70;99.90;;;;;;5040160;28;20214;-42
2022/07/08 01:58:13;;;;;;;10.30;2.57;;;14.60;99.90;;;;;;5043188;28;20601;-42
2022/07/08 02:00:39;;;;;;;11.20;1.93;;;14.60;99.90;;;;;;5035577;28;20609;-42
2022/07/08 02:03:06;;;;;;;8.50;1.50;;;14.70;99.90;;;;;;5042109;28;20202;-44
2022/07/08 02:05:34;;;;;;;11.37;1.90;;;14.60;99.90;;;;;;5028205;28;20297;-43
2022/07/08 02:08:02;;;;;;;8.10;2.00;;;14.70;99.90;;;;;;5040961;28;20400;-42
2022/07/08 02:12:18;;;;;;;9.07;1.87;;;14.70;99.90;;;;;;5042236;28;20203;-43
2022/07/08 02:13:18;;;;;;;6.23;1.70;;;14.70;99.90;;;;;;5042702;28;20223;-46
2022/07/08 02:15:45;;;;;;;6.67;1.53;;;14.70;99.90;;;;;;5039383;28;20278;-41
2022/07/08 02:18:12;;;;;;;5.03;1.57;;;14.70;99.90;;;;;;5043111;28;20195;-41
2022/07/08 02:20:39;;;;;;;10.20;1.97;;;14.70;99.90;;;;;;5030245;28;20195;-42
2022/07/08 02:23:06;;;;;;;7.93;1.50;;;14.70;99.90;;;;;;5044001;28;20222;-43
2022/07/08 02:25:33;;;;;;;7.53;1.80;;;14.70;99.90;;;;;;5045042;28;20715;-41
2022/07/08 02:28:00;;;;;;;11.27;2.30;;;14.70;99.90;;;;;;5045114;28;20807;-42
2022/07/08 02:30:28;;;;;;;7.40;2.33;;;14.70;99.90;;;;;;5045879;28;20203;-41
2022/07/08 02:32:55;;;;;;;7.73;1.57;;;14.70;99.90;;;;;;5043593;28;20191;-44
2022/07/08 02:35:22;;;;;;;11.30;1.73;;;14.70;99.90;;;;;;5046650;28;20199;-41
2022/07/08 02:37:49;;;;;;;6.90;1.57;;;14.70;99.90;;;;;;5024142;28;20206;-42
2022/07/08 02:40:17;;;;;;;6.93;1.80;;;14.70;99.90;;;;;;5046687;28;20203;-45
2022/07/08 02:42:43;;;;;;;6.80;1.70;;;14.70;99.90;;;;;;5043091;28;20723;-42
2022/07/08 02:45:10;;;;;;;9.97;1.70;;;14.70;99.90;;;;;;5046535;28;20231;-41
2022/07/08 02:47:38;;;;;;;10.00;1.97;;;14.70;99.90;;;;;;5043970;28;20261;-43
2022/07/08 02:50:07;;;;;;;10.93;1.90;;;14.70;99.90;;;;;;5045805;28;20203;-41
2022/07/08 02:52:33;;;;;;;7.93;2.00;;;14.70;99.90;;;;;;5029973;28;20216;-41
2022/07/08 02:55:01;;;;;;;4.80;1.23;;;14.70;99.90;;;;;;5043848;28;20223;-42
2022/07/08 02:57:28;;;;;;;7.53;1.60;;;14.70;99.90;;;;;;5045992;28;20225;-41
2022/07/08 02:59:55;;;;;;;6.63;1.57;;;14.70;99.90;;;;;;5033534;28;20183;-41
2022/07/08 03:02:22;;;;;;;6.00;2.10;;;14.70;99.90;;;;;;5046085;28;20199;-43
2022/07/08 03:04:51;;;;;;;9.47;1.87;;;14.60;99.90;;;;;;5041764;28;20846;-44
2022/07/08 03:07:18;;;;;;;8.07;1.50;;;14.60;99.90;;;;;;5046170;28;20223;-44
2022/07/08 03:09:45;;;;;;;6.70;1.53;;;14.60;99.90;;;;;;5028772;28;20953;-42
2022/07/08 03:12:12;;;;;;;5.47;1.57;;;14.60;99.90;;;;;;5046430;28;20687;-42
2022/07/08 03:14:39;;;;;;;10.80;1.70;;;14.60;99.90;;;;;;5041756;28;20639;-42
2022/07/08 03:17:06;;;;;;;5.87;1.40;;;14.60;99.90;;;;;;5045481;28;20274;-42
2022/07/08 03:19:32;;;;;;;6.53;1.40;;;14.60;99.90;;;;;;5044321;28;20571;-42
2022/07/08 03:22:01;;;;;;;6.80;1.30;;;14.60;99.90;;;;;;5044109;28;20194;-43
2022/07/08 03:24:28;;;;;;;7.33;1.77;;;14.60;99.90;;;;;;5031600;28;20688;-42
2022/07/08 03:26:55;;;;;;;7.10;2.17;;;14.60;99.90;;;;;;5042609;28;20291;-44
2022/07/08 03:29:22;;;;;;;10.90;1.97;;;14.50;99.90;;;;;;5042914;28;20590;-43
2022/07/08 03:31:49;;;;;;;15.23;2.07;;;14.60;99.90;;;;;;5034469;28;20222;-44
2022/07/08 03:34:16;;;;;;;9.67;1.57;;;14.50;99.90;;;;;;5045325;28;20715;-42
2022/07/08 03:36:43;;;;;;;7.60;1.93;;;14.50;99.90;;;;;;5042225;28;20547;-42
2022/07/08 03:39:11;;;;;;;8.37;2.17;;;14.50;99.90;;;;;;5032741;28;20199;-41
2022/07/08 03:41:37;;;;;;;8.73;1.90;;;14.50;99.90;;;;;;5042677;28;20286;-42
2022/07/08 03:44:04;;;;;;;14.23;1.90;;;14.50;99.90;;;;;;5044027;28;20897;-42
2022/07/08 03:46:31;;;;;;;5.33;1.90;;;14.50;99.90;;;;;;5044166;28;20231;-41
2022/07/08 03:48:58;;;;;;;7.87;1.93;;;14.60;99.90;;;;;;5043011;28;20199;-44
2022/07/08 03:51:25;;;;;;;10.80;2.00;;;14.60;99.90;;;;;;5044102;28;20888;-42
2022/07/08 03:53:52;;;;;;;9.83;1.50;;;14.50;99.90;;;;;;5041168;28;20219;-45
2022/07/08 03:56:20;;;;;;;4.93;1.37;;;14.50;99.90;;;;;;5029207;28;20238;-44
2022/07/08 03:58:48;;;;;;;6.00;1.40;;;14.50;99.90;;;;;;5038685;28;20196;-42
2022/07/08 04:01:15;;;;;;;7.07;1.50;;;14.60;99.90;;;;;;5044860;28;20677;-41
2022/07/08 04:03:42;;;;;;;11.67;2.67;;;14.50;99.90;;;;;;5041200;28;20634;-42
2022/07/08 04:06:09;;;;;;;4.83;1.50;;;14.50;99.90;;;;;;5044912;28;20616;-45
2022/07/08 04:08:36;;;;;;;7.10;1.87;;;14.50;99.90;;;;;;5042866;28;20430;-42
2022/07/08 04:11:03;;;;;;;12.60;2.17;;;14.50;99.90;;;;;;5031112;28;21226;-41
2022/07/08 04:13:31;;;;;;;8.20;2.17;;;14.50;99.90;;;;;;5043445;28;20766;-41
2022/07/08 04:15:58;;;;;;;12.17;1.73;;;14.50;99.90;;;;;;5042863;28;20195;-42
2022/07/08 04:18:25;;;;;;;4.97;1.60;;;14.50;99.90;;;;;;5044794;28;20245;-44
2022/07/08 04:20:52;;;;;;;10.83;2.07;;;14.50;99.90;;;;;;5041200;28;20192;-42
2022/07/08 04:23:19;;;;;;;8.30;1.80;;;14.50;99.90;;;;;;5044177;28;20222;-42
2022/07/08 04:25:46;;;;;;;8.77;1.47;;;14.50;99.90;;;;;;5027559;28;21585;-41
2022/07/08 04:28:13;;;;;;;8.13;1.50;;;14.50;99.90;;;;;;5044126;28;20283;-42
2022/07/08 04:30:41;;;;;;;6.83;1.80;;;14.50;99.90;;;;;;5038573;28;20204;-41
2022/07/08 04:33:09;;;;;;;6.67;2.03;;;14.50;99.90;;;;;;5044060;28;20207;-41
2022/07/08 04:35:36;;;;;;;8.23;1.50;;;14.50;99.90;;;;;;5042483;28;20656;-41
2022/07/08 04:38:03;;;;;;;7.67;1.67;;;14.60;99.90;;;;;;5043200;28;20473;-44
2022/07/08 04:40:30;;;;;;;7.73;1.50;;;14.50;99.90;;;;;;5039175;28;20208;-41
2022/07/08 04:42:57;;;;;;;8.17;1.90;;;14.50;99.90;;;;;;5033720;28;20965;-41
2022/07/08 04:45:24;;;;;;;7.80;1.97;;;14.60;99.90;;;;;;5043510;28;20200;-43
2022/07/08 04:47:53;;;;;;;7.60;1.70;;;14.60;99.90;;;;;;5040283;28;20223;-42
2022/07/08 04:50:21;;;;;;;5.17;1.23;;;14.60;99.90;;;;;;5039557;28;20600;-41
2022/07/08 04:52:48;;;;;;;9.23;1.73;;;14.60;99.90;;;;;;5039994;28;20191;-41
2022/07/08 04:55:28;;;;;;;13.87;1.97;;;14.60;99.90;;;;;;5027155;28;21382;-44
2022/07/08 04:57:56;;;;;;;12.97;1.80;;;14.60;99.90;;;;;;5030607;28;20219;-43
2022/07/08 05:00:24;;;;;;;8.13;1.60;;;14.60;99.90;;;;;;5031703;28;20614;-44
2022/07/08 05:02:50;;;;;;;7.93;1.80;;;14.70;99.90;;;;;;5034343;28;20254;-41
2022/07/08 05:05:21;;;;;;;7.17;1.87;;;14.70;99.90;;;;;;5029392;28;20852;-42
2022/07/08 05:07:48;;;;;;;11.70;2.20;;;14.70;99.90;;;;;;5037142;28;20212;-43
2022/07/08 05:10:16;;;;;;;8.67;1.63;;;14.80;99.90;;;;;;5033030;28;20196;-41
2022/07/08 05:12:43;;;;;;;9.37;1.60;;;14.80;99.90;;;;;;5027564;28;20210;-41
2022/07/08 05:15:11;;;;;;;10.00;1.43;;;14.80;99.90;;;;;;5038458;28;20617;-42
2022/07/08 05:17:38;;;;;;;8.70;1.60;;;14.90;99.90;;;;;;5034242;28;20203;-41
2022/07/08 05:20:06;;;;;;;14.37;1.90;;;14.90;99.90;;;;;;5033916;28;20203;-43
2022/07/08 05:22:35;;;;;;;8.13;1.80;;;15.00;99.90;;;;;;5036904;28;20203;-41
2022/07/08 05:25:01;;;;;;;7.20;1.73;;;15.00;99.90;;;;;;5027228;28;20277;-41
2022/07/08 05:27:29;;;;;;;5.43;1.47;;;15.00;99.90;;;;;;5020273;28;20430;-41
2022/07/08 05:29:56;;;;;;;11.33;1.80;;;15.00;99.90;;;;;;5036196;28;20195;-42
2022/07/08 05:32:22;;;;;;;8.43;1.77;;;15.00;99.90;;;;;;5027561;28;20204;-41
2022/07/08 05:34:50;;;;;;;9.30;1.53;;;15.00;99.90;;;;;;5027324;28;20247;-41
2022/07/08 05:37:16;;;;;;;8.23;1.40;;;15.10;99.90;;;;;;5034644;28;20194;-41
2022/07/08 05:39:45;;;;;;;7.80;1.60;;;15.10;99.90;;;;;;5036904;28;20192;-41
2022/07/08 05:42:12;;;;;;;5.67;1.93;;;15.20;99.90;;;;;;5016638;28;20203;-45
2022/07/08 05:44:39;;;;;;;6.47;1.63;;;15.20;99.90;;;;;;5036792;28;20262;-42
2022/07/08 05:47:08;;;;;;;5.33;1.47;;;15.20;99.90;;;;;;5031021;28;20693;-42
2022/07/08 05:49:35;;;;;;;10.20;1.87;;;15.20;99.90;;;;;;5032591;28;20307;-41
2022/07/08 05:52:02;;;;;;;9.67;1.77;;;15.20;99.90;;;;;;5030836;28;20216;-43
2022/07/08 05:54:29;;;;;;;4.23;1.30;;;15.30;99.90;;;;;;5033163;28;20211;-42
2022/07/08 05:56:57;;;;;;;6.37;1.53;;;15.30;99.90;;;;;;5039230;28;20245;-42
2022/07/08 05:59:24;;;;;;;11.20;1.87;;;15.30;99.90;;;;;;5020834;28;20207;-43
2022/07/08 06:01:52;;;;;;;9.77;1.97;;;15.30;99.90;;;;;;5041356;28;20225;-41
2022/07/08 06:04:19;;;;;;;8.03;1.63;;;15.40;99.90;;;;;;5026194;28;20223;-41
2022/07/08 06:06:45;;;;;;;2.67;1.33;;;15.40;99.90;;;;;;4999228;28;995006;-45
2022/07/08 06:09:12;;;;;;;8.43;2.00;;;15.40;99.90;;;;;;5034440;28;20203;-41
2022/07/08 06:11:39;;;;;;;7.80;1.70;;;15.40;99.90;;;;;;5038451;28;20629;-44
2022/07/08 06:14:07;;;;;;;7.77;1.90;;;15.40;99.90;;;;;;5023963;28;20226;-42
2022/07/08 06:16:34;;;;;;;9.03;1.93;;;15.40;99.90;;;;;;5039336;28;20197;-43
2022/07/08 06:19:01;;;;;;;8.10;1.87;;;15.50;99.90;;;;;;5042490;28;20206;-42
2022/07/08 06:21:27;;;;;;;8.10;2.10;;;15.60;99.90;;;;;;5034474;28;20210;-42
2022/07/08 06:23:54;;;;;;;7.17;2.10;;;15.60;99.90;;;;;;5040474;28;20218;-43
2022/07/08 06:26:21;;;;;;;6.90;1.77;;;15.60;99.90;;;;;;5041733;28;20203;-42
2022/07/08 06:28:48;;;;;;;7.07;1.53;;;15.70;99.90;;;;;;5019802;28;20235;-44
2022/07/08 06:31:16;;;;;;;6.50;1.67;;;15.90;99.90;;;;;;5021212;28;20219;-42
2022/07/08 06:33:43;;;;;;;9.47;1.80;;;15.90;99.90;;;;;;5036293;28;20219;-46
2022/07/08 06:36:10;;;;;;;8.53;1.80;;;15.90;99.90;;;;;;5032878;28;20663;-42
2022/07/08 06:38:37;;;;;;;4.10;1.43;;;16.00;99.90;;;;;;5036479;28;20191;-42
2022/07/08 06:41:03;;;;;;;6.20;1.70;;;15.90;99.90;;;;;;5034007;28;20207;-44
2022/07/08 06:43:30;;;;;;;7.07;1.77;;;16.00;99.90;;;;;;5018476;28;20665;-42
2022/07/08 06:45:57;;;;;;;11.30;2.07;;;16.00;99.90;;;;;;5029604;28;20222;-42
2022/07/08 06:48:25;;;;;;;10.27;2.27;;;16.00;99.90;;;;;;5034962;28;20227;-42
2022/07/08 06:50:52;;;;;;;11.27;1.30;;;16.10;99.90;;;;;;5037168;28;20812;-42
2022/07/08 06:53:19;;;;;;;8.63;2.43;;;16.20;99.90;;;;;;5038788;28;20242;-41
2022/07/08 06:55:45;;;;;;;6.77;1.40;;;16.30;99.90;;;;;;5036164;28;20203;-42
2022/07/08 06:58:12;;;;;;;10.77;2.30;;;16.40;99.90;;;;;;5035217;28;20679;-42
2022/07/08 07:00:38;;;;;;;5.83;1.87;;;16.50;99.90;;;;;;5029922;28;20200;-42
2022/07/08 07:03:05;;;;;;;4.53;1.30;;;16.60;99.90;;;;;;5024754;28;20230;-42
2022/07/08 07:05:33;;;;;;;6.27;1.47;;;16.50;99.90;;;;;;5028910;28;20242;-41
2022/07/08 07:08:00;;;;;;;4.93;1.60;;;16.50;99.90;;;;;;5030300;28;20946;-42
2022/07/08 07:10:27;;;;;;;4.20;1.30;;;16.50;99.90;;;;;;5039352;28;20249;-44
2022/07/08 07:12:54;;;;;;;5.70;1.33;;;16.50;99.90;;;;;;5036442;28;20203;-43
2022/07/08 07:15:21;;;;;;;3.13;1.20;;;16.40;99.90;;;;;;5040110;28;20290;-46
2022/07/08 07:17:47;;;;;;;5.73;1.47;;;16.40;99.90;;;;;;5025356;28;20286;-41
2022/07/08 07:20:14;;;;;;;6.03;1.83;;;16.40;99.90;;;;;;5039107;28;20273;-41
2022/07/08 07:22:43;;;;;;;5.53;1.70;;;16.40;99.90;;;;;;5033288;28;20195;-41
2022/07/08 07:25:10;;;;;;;5.90;1.63;;;16.30;99.90;;;;;;5037989;28;20231;-42
2022/07/08 07:27:36;;;;;;;6.27;1.57;;;16.30;99.90;;;;;;5039664;28;20214;-41
2022/07/08 07:30:04;;;;;;;7.00;1.37;;;16.30;99.90;;;;;;5030052;28;20314;-43
2022/07/08 07:32:30;;;;;;;6.77;1.67;;;16.40;99.90;;;;;;5044420;28;20202;-41
2022/07/08 07:34:57;;;;;;;2.40;1.20;;;16.40;99.90;;;;;;5023174;28;20234;-43
2022/07/08 07:37:24;;;;;;;9.37;2.13;;;16.40;99.90;;;;;;5038216;28;20668;-45
2022/07/08 07:39:52;;;;;;;2.43;1.47;;;16.50;99.90;;;;;;5029620;28;20678;-41
2022/07/08 07:42:18;;;;;;;9.87;1.50;;;16.50;99.90;;;;;;5044255;28;20531;-42
2022/07/08 07:44:45;;;;;;;9.20;1.80;;;16.50;99.90;;;;;;5034582;28;20215;-42
2022/07/08 07:47:11;;;;;;;6.13;2.23;;;16.40;99.90;;;;;;5031451;28;20219;-42
2022/07/08 07:49:40;;;;;;;8.27;2.10;;;16.40;99.90;;;;;;5029507;28;20306;-45
2022/07/08 07:52:07;;;;;;;5.87;1.87;;;16.40;99.90;;;;;;5042054;28;20230;-42
2022/07/08 07:54:33;;;;;;;5.93;1.77;;;16.30;99.90;;;;;;5037758;28;20250;-42
2022/07/08 07:57:02;;;;;;;7.00;2.50;;;16.30;99.90;;;;;;5036557;28;20207;-41
2022/07/08 07:59:29;;;;;;;6.80;2.00;;;16.30;99.90;;;;;;5040831;28;20200;-41
2022/07/08 08:01:55;;;;;;;5.20;1.67;;;16.40;99.90;;;;;;5031280;28;20203;-41
2022/07/08 08:04:22;;;;;;;9.23;1.67;;;16.30;99.90;;;;;;5027142;28;20608;-42
2022/07/08 08:06:49;;;;;;;4.67;2.43;;;16.30;99.90;;;;;;5038702;28;20282;-43
2022/07/08 08:09:16;;;;;;;6.50;1.73;;;16.30;99.90;;;;;;5036901;28;20225;-41
2022/07/08 08:11:42;;;;;;;6.77;2.20;;;16.20;99.90;;;;;;5033760;28;20198;-42
2022/07/08 08:14:10;;;;;;;6.97;2.13;;;16.20;99.90;;;;;;5037838;28;21426;-42
2022/07/08 08:16:37;;;;;;;8.20;1.83;;;16.20;99.90;;;;;;5027625;28;20212;-45
2022/07/08 08:19:03;;;;;;;9.00;2.43;;;16.10;99.90;;;;;;5028514;28;21068;-43
2022/07/08 08:21:30;;;;;;;4.47;1.47;;;16.10;99.90;;;;;;5024899;28;20203;-43
2022/07/08 08:23:57;;;;;;;9.27;2.10;;;16.00;99.90;;;;;;5030433;28;20768;-44
2022/07/08 08:26:24;;;;;;;7.70;2.03;;;16.00;99.90;;;;;;5035553;28;20191;-42
2022/07/08 08:28:51;;;;;;;5.03;1.50;;;16.00;99.90;;;;;;5034476;28;20243;-41
2022/07/08 08:31:19;;;;;;;4.77;1.47;;;16.00;99.90;;;;;;5034354;28;20203;-42
2022/07/08 08:33:45;;;;;;;3.43;1.70;;;16.00;99.90;;;;;;5037827;28;20242;-42
2022/07/08 08:36:12;;;;;;;4.70;1.83;;;16.10;99.90;;;;;;5026657;28;20211;-42
2022/07/08 08:38:39;;;;;;;4.90;1.53;;;16.10;99.90;;;;;;5032900;28;20203;-44
2022/07/08 08:41:07;;;;;;;6.77;1.93;;;16.10;99.90;;;;;;5035603;28;20572;-41
2022/07/08 08:43:34;;;;;;;5.17;1.83;;;16.00;99.90;;;;;;5029607;28;21331;-43
2022/07/08 08:46:00;;;;;;;4.70;1.90;;;16.00;99.90;;;;;;5039524;28;20204;-42
2022/07/08 08:48:35;;;;;;;5.33;2.60;;;16.10;99.90;;;;;;5033740;28;20222;-44
2022/07/08 08:51:03;;;;;;;4.07;1.70;;;16.10;99.90;;;;;;5026749;28;20211;-41
2022/07/08 08:53:37;;;;;;;4.80;1.60;;;16.20;99.90;;;;;;5027568;28;20227;-43
2022/07/08 08:56:08;;;;;;;8.13;2.00;;;16.30;99.90;;;;;;5030845;28;20199;-42
2022/07/08 08:58:37;;;;;;;6.97;1.87;;;16.40;99.90;;;;;;5039142;28;20187;-46
2022/07/08 09:01:04;;;;;;;6.37;1.73;;;16.50;99.90;;;;;;5020914;28;20680;-42
2022/07/08 09:03:32;;;;;;;3.70;1.60;;;16.40;99.90;;;;;;5024910;28;20219;-42
2022/07/08 09:05:59;;;;;;;4.00;1.90;;;16.50;99.90;;;;;;5019904;28;20218;-43
2022/07/08 09:08:26;;;;;;;3.80;1.50;;;16.50;99.90;;;;;;5034999;28;20223;-42
2022/07/08 09:10:52;;;;;;;6.67;1.67;;;16.40;99.90;;;;;;5025997;28;20257;-42
2022/07/08 09:13:23;;;;;;;2.87;1.30;;;16.40;99.90;;;;;;5039229;28;20572;-40
2022/07/08 09:15:50;;;;;;;2.40;1.80;;;16.40;99.90;;;;;;5015355;28;20250;-40
2022/07/08 09:18:18;;;;;;;3.63;1.77;;;16.30;99.90;;;;;;5032646;28;20199;-40
2022/07/08 09:20:48;;;;;;;2.10;1.40;;;16.30;99.90;;;;;;5013547;28;20216;-41
2022/07/08 09:23:18;;;;;;;2.37;1.93;;;16.20;99.90;;;;;;5040181;28;20203;-40
2022/07/08 09:25:47;;;;;;;2.50;1.37;;;16.30;99.90;;;;;;5031989;28;20432;-40
2022/07/08 09:28:13;;;;;;;1.97;1.20;;;16.40;99.90;;;;;;5035479;28;20702;-40
2022/07/08 09:30:43;;;;;;;4.43;1.30;;;16.40;99.90;;;;;;5024974;28;20207;-41
2022/07/08 09:33:11;;;;;;;2.20;1.30;;;16.40;99.90;;;;;;5030243;28;20210;-41
2022/07/08 09:35:38;;;;;;;1.73;1.27;;;16.60;99.90;;;;;;5022534;28;20285;-41
2022/07/08 09:38:08;;;;;;;2.50;1.00;;;16.60;99.90;;;;;;5037341;28;20202;-40
2022/07/08 09:40:36;;;;;;;1.90;1.00;;;16.60;99.90;;;;;;5029889;28;20204;-41
2022/07/08 09:43:12;;;;;;;2.30;1.17;;;16.60;99.90;;;;;;5017115;28;20235;-41
2022/07/08 09:45:39;;;;;;;1.60;1.50;;;16.60;99.90;;;;;;5036492;28;20192;-40
2022/07/08 09:48:07;;;;;;;2.37;1.30;;;16.70;99.90;;;;;;5022132;28;20222;-40
2022/07/08 09:50:39;;;;;;;1.73;1.40;;;16.80;99.90;;;;;;5034189;28;20293;-40
2022/07/08 09:53:19;;;;;;;2.70;1.17;;;16.90;99.90;;;;;;5028306;28;20265;-41
2022/07/08 09:55:47;;;;;;;2.77;1.20;;;17.00;99.90;;;;;;5030124;28;20227;-41
2022/07/08 09:58:15;;;;;;;2.90;1.10;;;16.90;99.90;;;;;;5032763;28;20186;-42
2022/07/08 10:00:44;;;;;;;1.73;1.10;;;16.90;99.90;;;;;;5023576;28;20219;-40
2022/07/08 10:03:11;;;;;;;1.47;1.00;;;16.90;99.90;;;;;;5024972;28;20205;-42
2022/07/08 10:05:38;;;;;;;0.87;0.83;;;16.90;99.90;;;;;;5029315;28;20214;-43
2022/07/08 10:08:06;;;;;;;3.00;1.27;;;16.90;99.90;;;;;;5018536;28;20223;-41
2022/07/08 10:10:34;;;;;;;2.30;1.13;;;16.90;99.90;;;;;;5021987;28;20265;-41
2022/07/08 10:13:02;;;;;;;1.20;0.97;;;16.90;99.90;;;;;;5027637;28;20199;-61
2022/07/08 10:15:30;;;;;;;1.03;0.90;;;16.70;99.90;;;;;;5024629;28;20227;-61
2022/07/08 10:18:03;;;;;;;1.10;1.00;;;16.70;99.90;;;;;;5029649;28;20207;-60
2022/07/08 10:20:32;;;;;;;1.60;1.10;;;16.70;99.90;;;;;;5025965;28;20282;-60
2022/07/08 10:23:05;;;;;;;1.70;1.00;;;16.60;99.90;;;;;;5020956;28;21946;-60
2022/07/08 10:25:32;;;;;;;1.30;1.00;;;16.60;99.90;;;;;;5039237;28;20215;-60
2022/07/08 10:28:08;;;;;;;2.83;1.00;;;16.60;99.90;;;;;;5021917;28;20223;-60
2022/07/08 10:30:50;;;;;;;1.67;1.00;;;16.60;99.90;;;;;;5025532;28;20687;-60
2022/07/08 10:33:44;;;;;;;1.30;1.17;;;16.60;99.90;;;;;;5039141;28;20206;-60
2022/07/08 10:36:11;;;;;;;2.50;1.40;;;16.60;99.90;;;;;;5029508;28;20227;-60
2022/07/08 10:38:39;;;;;;;2.87;1.40;;;16.70;99.90;;;;;;5018976;28;20196;-60
2022/07/08 10:41:08;;;;;;;3.00;1.40;;;16.70;99.90;;;;;;5034904;28;20298;-60
2022/07/08 10:43:37;;;;;;;2.90;1.77;;;16.80;99.90;;;;;;5028925;28;20231;-60
2022/07/08 10:46:10;;;;;;;3.53;1.90;;;17.00;99.90;;;;;;5029739;28;20688;-43
2022/07/08 10:48:54;;;;;;;2.53;1.60;;;17.20;99.90;;;;;;5038681;28;20688;-41
2022/07/08 10:51:49;;;;;;;2.63;1.77;;;17.20;99.90;;;;;;5024537;28;20223;-41
2022/07/08 10:54:27;;;;;;;3.93;1.77;;;17.40;99.90;;;;;;5026648;28;20219;-41
2022/07/08 10:56:55;;;;;;;1.73;1.33;;;17.60;99.90;;;;;;5042185;28;20387;-43
2022/07/08 10:59:25;;;;;;;3.70;1.47;;;17.70;99.90;;;;;;5033789;28;20676;-45
2022/07/08 11:01:53;;;;;;;2.47;1.27;;;17.80;99.90;;;;;;5022072;28;20211;-42
2022/07/08 11:04:29;;;;;;;2.90;1.20;;;17.90;99.90;;;;;;5034220;28;20286;-45
2022/07/08 11:07:30;;;;;;;3.10;1.40;;;17.80;99.90;;;;;;5022933;28;20283;-45
2022/07/08 11:10:05;;;;;;;8.63;4.27;;;17.80;99.90;;;;;;5027950;28;20233;-41
2022/07/08 11:12:33;;;;;;;4.20;1.17;;;17.80;99.90;;;;;;5037284;28;20198;-42
2022/07/08 11:15:04;;;;;;;1.90;1.10;;;17.70;99.90;;;;;;5021101;28;20234;-43
2022/07/08 11:17:33;;;;;;;2.93;1.63;;;17.70;99.90;;;;;;5032233;28;20975;-42
2022/07/08 11:20:04;;;;;;;2.17;1.37;;;17.90;99.90;;;;;;5035136;28;20227;-45
2022/07/08 11:22:34;;;;;;;2.27;1.40;;;18.00;99.90;;;;;;5025544;28;20200;-42
2022/07/08 11:25:02;;;;;;;2.73;1.10;;;18.10;99.90;;;;;;5015857;28;20219;-42
2022/07/08 11:27:33;;;;;;;2.97;1.10;;;18.20;99.90;;;;;;5045086;28;20203;-43
2022/07/08 11:30:02;;;;;;;1.10;0.90;;;18.30;99.90;;;;;;5027122;28;20301;-43
2022/07/08 11:32:30;;;;;;;3.57;1.20;;;18.40;99.90;;;;;;5029703;28;20688;-43
2022/07/08 11:34:57;;;;;;;1.93;0.90;;;18.50;99.90;;;;;;5030996;28;20239;-44
2022/07/08 11:37:24;;;;;;;2.00;0.83;;;18.60;99.90;;;;;;5024110;28;20209;-42
2022/07/08 11:39:51;;;;;;;1.80;1.00;;;18.80;99.90;;;;;;5029598;28;20203;-43
2022/07/08 11:42:18;;;;;;;2.17;0.83;;;19.00;99.90;;;;;;5019447;28;20212;-43
2022/07/08 11:44:46;;;;;;;4.83;1.40;;;19.00;99.90;;;;;;5038259;28;20233;-42
2022/07/08 11:47:17;;;;;;;2.97;1.00;;;19.00;99.90;;;;;;5027671;28;20211;-43
2022/07/08 11:49:45;;;;;;;0.90;0.70;;;19.10;99.90;;;;;;5033657;28;20711;-43
2022/07/08 11:52:16;;;;;;;1.73;0.77;;;19.30;99.90;;;;;;5042509;28;20420;-44
2022/07/08 11:54:45;;;;;;;0.97;0.73;;;19.30;99.90;;;;;;5033586;28;20219;-44
2022/07/08 11:57:13;;;;;;;0.67;0.67;;;19.30;99.90;;;;;;5021015;28;20215;-43
2022/07/08 11:59:40;;;;;;;1.70;0.60;;;19.30;99.90;;;;;;5038911;28;20585;-44
2022/07/08 12:02:07;;;;;;;2.03;0.77;;;19.30;99.90;;;;;;5031159;28;20908;-43
2022/07/08 12:04:35;;;;;;;1.53;0.90;;;19.10;99.90;;;;;;5028035;28;20231;-42
2022/07/08 12:07:03;;;;;;;1.43;1.03;;;19.10;99.90;;;;;;5034015;28;20359;-45
2022/07/08 12:09:31;;;;;;;4.33;1.20;;;19.10;99.90;;;;;;5025711;28;20222;-46
2022/07/08 12:11:59;;;;;;;1.67;1.20;;;19.30;99.90;;;;;;5026768;28;20206;-42
2022/07/08 12:14:26;;;;;;;4.20;1.53;;;19.40;99.90;;;;;;5032763;28;20223;-42
2022/07/08 12:16:54;;;;;;;3.27;1.30;;;19.50;99.90;;;;;;5032579;28;20200;-42
2022/07/08 12:19:29;;;;;;;3.33;1.00;;;19.60;99.90;;;;;;5028177;28;20199;-42
2022/07/08 12:21:59;;;;;;;4.23;1.20;;;19.40;99.90;;;;;;5040279;28;20199;-42
2022/07/08 12:24:28;;;;;;;4.00;1.60;;;19.40;99.90;;;;;;5038158;28;20261;-44
2022/07/08 12:26:56;;;;;;;3.93;1.40;;;19.50;99.90;;;;;;5011646;28;20199;-44
2022/07/08 12:29:23;;;;;;;5.60;2.03;;;19.70;99.90;;;;;;5029926;28;20219;-45
2022/07/08 12:31:50;;;;;;;4.00;1.40;;;19.80;99.90;;;;;;5027030;28;20202;-42
2022/07/08 12:34:18;;;;;;;3.60;2.03;;;19.70;99.90;;;;;;5024384;28;20266;-43
2022/07/08 12:36:45;;;;;;;3.50;1.50;;;19.60;99.90;;;;;;5024930;28;20195;-43
2022/07/08 12:39:15;;;;;;;4.00;1.57;;;19.70;99.90;;;;;;5040464;28;20192;-43
2022/07/08 12:41:42;;;;;;;4.90;1.87;;;19.70;99.90;;;;;;5024673;28;20204;-43
2022/07/08 12:44:29;;;;;;;3.40;1.70;;;19.80;99.90;;;;;;5019535;28;20219;-43
2022/07/08 12:46:56;;;;;;;2.77;1.70;;;20.00;99.90;;;;;;5034729;28;20261;-44
2022/07/08 12:49:24;;;;;;;5.50;1.93;;;20.10;99.90;;;;;;5025226;28;20215;-42